Yining, China
Current Conditions -  °F | °C
As of 3:00 AM on Sunday 26 Oct 2014 (Local Time) from UAAA Reporting Station
Haze Haze  
Wind Chill: 42°   Ceiling: Unl
Heat Index: 45°   Visibility: 1.3mi
Dew Point: 41°   Wind: 4mph
Humidity: 87%   Direction: 150°SSE
Pressure: 30"   Gusts: NA
Location:  43.9°N, 81.35°E
Report Text: UAAA 251900Z 15002MPS 2100 BR SCT100 07/05 Q1016 R88/CLRD65NOSIG
Loading
Personal Weather Stations






























Interactive Weather Map
Tropical Storm Tracking
New forecast layout! Learn more

10-Day Weather Forecast

Advertisements
Track Severe Weather on mobile